sensor_id;sensor_type;location;lat;lon;timestamp;P1;durP1;ratioP1;P2;durP2;ratioP2
15218;SDS011;15623;53.986;11.676;2023-08-12T03:41:17;3.85;;;2.78;;
15218;SDS011;15623;53.986;11.676;2023-08-12T03:43:59;5.25;;;2.92;;
15218;SDS011;15623;53.986;11.676;2023-08-12T09:20:57;4.13;;;2.90;;
15218;SDS011;15623;53.986;11.676;2023-08-12T09:26:29;3.20;;;3.00;;
15218;SDS011;15623;53.986;11.676;2023-08-12T09:32:09;3.33;;;2.97;;
15218;SDS011;15623;53.986;11.676;2023-08-12T09:37:46;3.45;;;2.97;;
15218;SDS011;15623;53.986;11.676;2023-08-12T09:43:20;3.78;;;3.03;;
15218;SDS011;15623;53.986;11.676;2023-08-12T09:48:57;3.53;;;3.00;;
15218;SDS011;15623;53.986;11.676;2023-08-12T09:54:32;4.50;;;3.15;;
15218;SDS011;15623;53.986;11.676;2023-08-12T10:00:04;3.42;;;3.10;;
15218;SDS011;15623;53.986;11.676;2023-08-12T10:05:41;3.08;;;2.80;;
15218;SDS011;15623;53.986;11.676;2023-08-12T10:11:14;2.72;;;2.58;;
15218;SDS011;15623;53.986;11.676;2023-08-12T10:16:46;5.70;;;2.85;;
15218;SDS011;15623;53.986;11.676;2023-08-12T10:19:14;6.30;;;2.50;;
15218;SDS011;15623;53.986;11.676;2023-08-12T10:24:47;3.22;;;3.03;;
15218;SDS011;15623;53.986;11.676;2023-08-12T10:30:21;3.80;;;3.00;;
15218;SDS011;15623;53.986;11.676;2023-08-12T10:35:53;4.60;;;3.08;;
15218;SDS011;15623;53.986;11.676;2023-08-12T10:41:26;7.55;;;3.13;;
15218;SDS011;15623;53.986;11.676;2023-08-12T10:47:00;3.40;;;3.13;;
15218;SDS011;15623;53.986;11.676;2023-08-12T10:52:39;3.15;;;2.95;;
15218;SDS011;15623;53.986;11.676;2023-08-12T10:58:13;4.20;;;3.42;;
15218;SDS011;15623;53.986;11.676;2023-08-12T11:03:57;3.63;;;3.20;;
15218;SDS011;15623;53.986;11.676;2023-08-12T11:09:29;4.57;;;3.50;;
15218;SDS011;15623;53.986;11.676;2023-08-12T11:15:01;3.45;;;3.13;;
15218;SDS011;15623;53.986;11.676;2023-08-12T11:20:35;3.72;;;3.42;;
15218;SDS011;15623;53.986;11.676;2023-08-12T11:26:06;3.40;;;3.10;;
15218;SDS011;15623;53.986;11.676;2023-08-12T11:31:38;4.45;;;3.20;;
15218;SDS011;15623;53.986;11.676;2023-08-12T11:37:11;4.93;;;3.38;;
15218;SDS011;15623;53.986;11.676;2023-08-12T11:42:44;3.22;;;3.00;;
15218;SDS011;15623;53.986;11.676;2023-08-12T11:48:15;4.43;;;3.25;;
15218;SDS011;15623;53.986;11.676;2023-08-12T11:53:49;4.95;;;3.67;;
15218;SDS011;15623;53.986;11.676;2023-08-12T11:59:21;3.95;;;3.70;;
15218;SDS011;15623;53.986;11.676;2023-08-12T12:04:54;4.35;;;3.47;;
15218;SDS011;15623;53.986;11.676;2023-08-12T12:10:28;4.50;;;4.10;;
15218;SDS011;15623;53.986;11.676;2023-08-12T12:16:00;4.97;;;4.43;;
15218;SDS011;15623;53.986;11.676;2023-08-12T12:21:38;4.50;;;4.20;;
15218;SDS011;15623;53.986;11.676;2023-08-12T12:27:11;5.30;;;4.80;;
15218;SDS011;15623;53.986;11.676;2023-08-12T12:32:43;4.30;;;3.72;;
15218;SDS011;15623;53.986;11.676;2023-08-12T12:38:15;3.35;;;3.15;;
15218;SDS011;15623;53.986;11.676;2023-08-12T12:43:48;5.05;;;3.92;;
15218;SDS011;15623;53.986;11.676;2023-08-12T12:49:23;5.53;;;4.35;;
15218;SDS011;15623;53.986;11.676;2023-08-12T12:54:59;5.50;;;4.03;;
15218;SDS011;15623;53.986;11.676;2023-08-12T13:00:34;4.10;;;3.75;;
15218;SDS011;15623;53.986;11.676;2023-08-12T13:06:06;4.68;;;3.38;;
15218;SDS011;15623;53.986;11.676;2023-08-12T13:11:37;5.10;;;3.10;;
15218;SDS011;15623;53.986;11.676;2023-08-12T13:17:10;3.25;;;2.95;;
15218;SDS011;15623;53.986;11.676;2023-08-12T13:22:41;6.43;;;3.30;;
15218;SDS011;15623;53.986;11.676;2023-08-12T13:28:12;3.38;;;3.03;;
15218;SDS011;15623;53.986;11.676;2023-08-12T13:33:45;3.45;;;3.17;;
15218;SDS011;15623;53.986;11.676;2023-08-12T13:39:17;3.88;;;3.53;;
15218;SDS011;15623;53.986;11.676;2023-08-12T13:44:49;4.82;;;3.50;;
15218;SDS011;15623;53.986;11.676;2023-08-12T13:50:22;3.55;;;3.28;;
15218;SDS011;15623;53.986;11.676;2023-08-12T13:55:54;3.88;;;3.58;;
15218;SDS011;15623;53.986;11.676;2023-08-12T14:01:25;5.60;;;3.42;;
15218;SDS011;15623;53.986;11.676;2023-08-12T14:06:59;6.25;;;3.83;;
15218;SDS011;15623;53.986;11.676;2023-08-12T14:12:30;5.07;;;3.58;;
15218;SDS011;15623;53.986;11.676;2023-08-12T14:18:02;3.75;;;3.45;;
15218;SDS011;15623;53.986;11.676;2023-08-12T14:23:38;3.72;;;3.53;;
15218;SDS011;15623;53.986;11.676;2023-08-12T14:29:09;3.97;;;3.58;;
15218;SDS011;15623;53.986;11.676;2023-08-12T14:34:41;6.40;;;5.88;;
15218;SDS011;15623;53.986;11.676;2023-08-12T14:40:17;5.97;;;5.15;;
15218;SDS011;15623;53.986;11.676;2023-08-12T14:45:49;5.45;;;4.40;;
15218;SDS011;15623;53.986;11.676;2023-08-12T14:51:21;4.53;;;4.22;;
15218;SDS011;15623;53.986;11.676;2023-08-12T14:56:57;5.20;;;4.80;;
15218;SDS011;15623;53.986;11.676;2023-08-12T15:02:29;6.00;;;4.03;;
15218;SDS011;15623;53.986;11.676;2023-08-12T15:08:12;4.95;;;4.57;;
15218;SDS011;15623;53.986;11.676;2023-08-12T15:13:46;6.85;;;4.18;;
15218;SDS011;15623;53.986;11.676;2023-08-12T15:19:17;5.13;;;4.63;;
15218;SDS011;15623;53.986;11.676;2023-08-12T15:24:48;5.25;;;4.70;;
15218;SDS011;15623;53.986;11.676;2023-08-12T15:30:23;6.65;;;4.95;;
15218;SDS011;15623;53.986;11.676;2023-08-12T15:35:54;5.25;;;4.70;;
15218;SDS011;15623;53.986;11.676;2023-08-12T15:41:28;8.15;;;5.13;;
15218;SDS011;15623;53.986;11.676;2023-08-12T15:47:01;6.68;;;4.75;;
15218;SDS011;15623;53.986;11.676;2023-08-12T15:52:33;9.25;;;5.47;;
15218;SDS011;15623;53.986;11.676;2023-08-12T15:58:10;13.95;;;5.00;;
15218;SDS011;15623;53.986;11.676;2023-08-12T16:04:01;9.68;;;5.03;;
15218;SDS011;15623;53.986;11.676;2023-08-12T16:09:35;9.88;;;5.22;;
15218;SDS011;15623;53.986;11.676;2023-08-12T16:15:08;5.63;;;4.72;;
15218;SDS011;15623;53.986;11.676;2023-08-12T16:20:44;5.53;;;4.80;;
15218;SDS011;15623;53.986;11.676;2023-08-12T16:26:18;41.83;;;21.30;;
15218;SDS011;15623;53.986;11.676;2023-08-12T16:31:50;10.85;;;8.50;;
15218;SDS011;15623;53.986;11.676;2023-08-12T16:34:19;7.45;;;6.85;;
15218;SDS011;15623;53.986;11.676;2023-08-12T16:40:03;16.45;;;12.30;;
15218;SDS011;15623;53.986;11.676;2023-08-12T16:45:35;7.55;;;6.43;;
15218;SDS011;15623;53.986;11.676;2023-08-12T16:51:07;11.40;;;10.25;;
15218;SDS011;15623;53.986;11.676;2023-08-12T16:56:41;15.90;;;12.38;;
15218;SDS011;15623;53.986;11.676;2023-08-12T17:02:13;14.55;;;11.27;;
15218;SDS011;15623;53.986;11.676;2023-08-12T17:07:44;16.83;;;11.50;;
15218;SDS011;15623;53.986;11.676;2023-08-12T17:25:12;8.52;;;7.72;;
15218;SDS011;15623;53.986;11.676;2023-08-12T17:30:44;7.55;;;6.80;;
15218;SDS011;15623;53.986;11.676;2023-08-12T17:36:17;11.00;;;8.27;;
15218;SDS011;15623;53.986;11.676;2023-08-12T17:47:53;9.00;;;8.30;;
15218;SDS011;15623;53.986;11.676;2023-08-12T17:53:25;9.20;;;8.50;;
15218;SDS011;15623;53.986;11.676;2023-08-12T17:59:11;9.27;;;8.38;;
15218;SDS011;15623;53.986;11.676;2023-08-12T18:05:01;9.75;;;8.93;;
15218;SDS011;15623;53.986;11.676;2023-08-12T18:10:34;9.68;;;8.85;;
15218;SDS011;15623;53.986;11.676;2023-08-12T18:16:09;8.70;;;8.00;;
15218;SDS011;15623;53.986;11.676;2023-08-12T18:21:43;9.30;;;8.50;;
15218;SDS011;15623;53.986;11.676;2023-08-12T18:27:17;9.35;;;8.23;;
15218;SDS011;15623;53.986;11.676;2023-08-12T18:33:03;8.60;;;7.90;;
15218;SDS011;15623;53.986;11.676;2023-08-12T18:51:16;9.90;;;8.90;;
15218;SDS011;15623;53.986;11.676;2023-08-12T18:56:49;10.40;;;9.50;;
15218;SDS011;15623;53.986;11.676;2023-08-12T19:02:35;10.38;;;9.65;;
15218;SDS011;15623;53.986;11.676;2023-08-12T19:26:37;7.80;;;7.30;;
15218;SDS011;15623;53.986;11.676;2023-08-12T19:32:10;6.22;;;5.72;;
15218;SDS011;15623;53.986;11.676;2023-08-12T19:37:42;4.53;;;4.32;;
15218;SDS011;15623;53.986;11.676;2023-08-12T19:43:40;3.63;;;3.40;;
15218;SDS011;15623;53.986;11.676;2023-08-12T19:49:14;2.92;;;2.83;;
15218;SDS011;15623;53.986;11.676;2023-08-12T19:54:56;2.70;;;2.60;;
15218;SDS011;15623;53.986;11.676;2023-08-12T20:06:37;2.50;;;2.40;;
15218;SDS011;15623;53.986;11.676;2023-08-12T20:12:22;2.20;;;2.10;;
15218;SDS011;15623;53.986;11.676;2023-08-12T20:18:23;2.50;;;2.30;;
